Main page
METAR-TAF:

METAR-TAF

Airports :

Beijing, China

Beijing Capital International Airport

latitude: 39-56N, longitude: 116-17E, elevation: 55 m

Current weather observation

The report was made 17 minutes ago, at 04:00 UTC
Wind 4 kt from the East/Southeast, varying between Northeast and South
Temperature 16°C
Humidity 45%
Pressure 1026 hPa
Visibility 10 km or more
no clouds below 1500 m and no cumulonimbus

METAR: ZBAA 230400Z 12002MPS 050V190 CAVOK 16/04 Q1026 NOSIG

Time: 12:17 (04:17 UTC)

Forecast

The report was made 6 hours and 47 minutes ago, at 21:30 UTC
Forecast valid from 23 at 00 UTC to 23 at 24 UTC
Wind 8 kt from the South
Visibility: 5000 m
mist

TAF: ZBAA 222130Z 2300/2324 18004MPS 5000 BR NSC TX17/2307Z TN05/2321Z

Weather observations and forecasts of more than 4000 airports (METAR and TAF reports).

The available stations are represented by yellow and red dots on the map.

Hover mouse over dot to see the name of the station.

Then click to see weather observations and forecasts.

To change the map : click on the green buttons with a black cross to zoom in, on the green button with a dash to zoom out, or on the green arrows for adjacent maps.


METAR-TAF: